Kindakun Rocks, Canada
Current Conditions -  °F | °C
As of 6:00 AM on Monday 22 Dec 2014 (Local Time) from CYZP Reporting Station
Clear Clear  
Wind Chill: 37°   Ceiling: Unl
Heat Index: 41°   Visibility: 9mi
Dew Point: 36°   Wind: 6mph
Humidity: 81%   Direction: 190°S
Pressure: 30.16"   Gusts: NA
Location:  53.32°N, 132.75°W
Report Text: CYZP 221400Z AUTO 19005KT 9SM CLR 05/02 A3016 RMK SLP212
Loading
Personal Weather Stations






























Interactive Weather Map New forecast layout! Learn more

10-Day Weather Forecast

Advertisements
Track Severe Weather on mobile